Time;durP1;ratioP1;P1;durP2;ratioP2;P2;SDS_P1;SDS_P2;PMS_P1;PMS_P2;Temp;Humidity;BMP_temperature;BMP_pressure;BME280_temperature;BME280_humidity;BME280_pressure;Samples;Min_cycle;Max_cycle;Signal;HPM_P1;HPM_P2
2021/03/05 00:03:15;;;;;;;13.13;11.73;;;;;;;10.07;61.95;97799.38;8344966;28;20208;-84
2021/03/05 00:07:21;;;;;;;12.87;11.57;;;;;;;9.99;61.81;97794.53;8345749;28;20349;-84
2021/03/05 00:11:24;;;;;;;12.83;11.47;;;;;;;9.98;61.87;97796.31;8346868;28;20273;-84
2021/03/05 00:15:35;;;;;;;12.07;10.87;;;;;;;9.59;62.35;97804.91;8346742;28;20734;-84
2021/03/05 00:19:37;;;;;;;12.53;10.10;;;;;;;9.88;61.20;97810.56;8344748;28;20568;-84
2021/03/05 00:23:40;;;;;;;11.53;10.33;;;;;;;9.96;61.07;97816.22;8342408;28;20224;-84
2021/03/05 00:27:42;;;;;;;11.40;10.40;;;;;;;9.69;62.55;97814.84;8341880;28;20589;-84
2021/03/05 00:31:44;;;;;;;11.13;10.13;;;;;;;9.89;61.96;97826.91;8342223;28;20212;-84
2021/03/05 00:35:46;;;;;;;11.73;10.53;;;;;;;9.38;61.92;97823.91;8342380;28;20256;-84
2021/03/05 00:39:50;;;;;;;11.87;10.67;;;;;;;9.70;61.62;97834.63;8347731;28;20208;-83
2021/03/05 00:43:52;;;;;;;13.97;12.57;;;;;;;9.65;61.53;97828.81;8344339;28;20215;-84
2021/03/05 00:47:54;;;;;;;13.13;11.93;;;;;;;9.68;61.88;97844.19;8323355;28;20216;-84
2021/03/05 00:51:58;;;;;;;10.83;9.80;;;;;;;9.37;61.16;97829.97;8338461;28;20253;-84
2021/03/05 00:56:03;;;;;;;10.33;9.23;;;;;;;9.47;61.17;97841.59;8341011;28;20698;-85
2021/03/05 01:00:09;;;;;;;9.83;8.93;;;;;;;9.54;60.20;97849.97;8326790;28;20201;-84
2021/03/05 01:04:10;;;;;;;9.63;8.57;;;;;;;9.69;60.27;97863.97;8364935;28;20216;-84
2021/03/05 01:08:13;;;;;;;9.80;8.90;;;;;;;9.39;60.16;97860.03;8348294;28;20228;-84
2021/03/05 01:12:16;;;;;;;7.70;7.00;;;;;;;9.43;60.07;97860.75;8344873;28;20235;-84
2021/03/05 01:16:18;;;;;;;8.00;7.30;;;;;;;9.04;60.70;97864.03;8347115;28;20220;-84
2021/03/05 01:20:22;;;;;;;7.67;6.97;;;;;;;9.26;60.33;97879.53;8347847;28;20239;-84
2021/03/05 01:24:25;;;;;;;6.70;6.07;;;;;;;9.12;60.53;97880.06;8343484;28;20238;-84
2021/03/05 01:28:28;;;;;;;6.27;5.70;;;;;;;9.16;59.59;97880.81;8340092;28;20212;-84
2021/03/05 01:32:30;;;;;;;6.23;5.73;;;;;;;9.10;59.80;97894.81;8338555;28;20204;-84
2021/03/05 01:36:33;;;;;;;6.37;5.77;;;;;;;9.06;60.02;97894.97;8347564;28;20228;-84
2021/03/05 01:40:37;;;;;;;5.80;5.30;;;;;;;9.31;59.21;97907.75;8339954;28;20200;-85
2021/03/05 01:44:41;;;;;;;6.13;5.63;;;;;;;9.10;59.54;97906.84;8322792;28;20208;-85
2021/03/05 01:48:43;;;;;;;6.20;5.60;;;;;;;8.76;59.96;97910.75;8339814;28;20205;-85
2021/03/05 01:52:47;;;;;;;6.43;5.90;;;;;;;8.73;61.02;97913.44;8339404;28;20239;-85
2021/03/05 01:56:51;;;;;;;6.03;5.50;;;;;;;8.89;59.25;97911.13;8341195;28;20566;-85
2021/03/05 02:00:57;;;;;;;5.93;5.33;;;;;;;8.91;58.82;97925.66;8339671;28;20201;-85
2021/03/05 02:04:59;;;;;;;5.80;5.30;;;;;;;8.65;59.14;97926.66;8339376;28;20223;-85
2021/03/05 02:09:02;;;;;;;5.43;4.63;;;;;;;8.39;58.33;97930.13;8339210;28;20204;-85
2021/03/05 02:13:05;;;;;;;4.50;4.10;;;;;;;8.40;57.42;97937.00;8338202;28;20247;-85
2021/03/05 02:17:12;;;;;;;4.67;4.27;;;;;;;8.37;57.42;97934.50;8339113;28;20224;-85
2021/03/05 02:21:32;;;;;;;5.13;4.73;;;;;;;8.44;57.34;97936.03;8338605;28;20534;-85
2021/03/05 02:26:02;;;;;;;5.50;5.00;;;;;;;8.58;57.03;97941.50;8339380;28;20189;-85
2021/03/05 02:30:36;;;;;;;6.00;5.47;;;;;;;8.50;57.54;97942.69;8337366;28;20222;-84
2021/03/05 02:34:43;;;;;;;6.80;6.20;;;;;;;8.46;58.23;97949.72;8318298;28;20181;-85
2021/03/05 02:39:05;;;;;;;8.43;7.00;;;;;;;8.45;58.92;97949.75;8335155;28;20230;-84
2021/03/05 02:43:09;;;;;;;7.40;6.70;;;;;;;8.58;58.46;97958.75;8334602;28;20193;-83
2021/03/05 02:47:14;;;;;;;7.80;7.10;;;;;;;8.40;59.29;97966.22;8334832;28;20219;-84
2021/03/05 02:51:18;;;;;;;8.00;7.30;;;;;;;8.44;59.13;97958.41;8335062;28;20303;-84
2021/03/05 02:55:21;;;;;;;7.43;6.73;;;;;;;8.22;59.44;97964.28;8334613;28;20231;-84
2021/03/05 02:59:23;;;;;;;6.83;6.27;;;;;;;8.17;58.61;97972.19;8335512;28;20649;-84
2021/03/05 03:03:27;;;;;;;6.30;5.80;;;;;;;8.01;59.57;97982.19;8316630;28;20665;-84
2021/03/05 03:07:30;;;;;;;6.33;5.83;;;;;;;7.96;59.46;97981.50;8304071;28;20213;-85
2021/03/05 03:11:33;;;;;;;5.77;5.27;;;;;;;7.91;59.56;97974.81;8303725;28;20232;-85
2021/03/05 03:15:36;;;;;;;6.47;5.87;;;;;;;7.78;59.87;97985.50;8308955;28;20606;-82
2021/03/05 03:19:39;;;;;;;6.10;5.50;;;;;;;7.65;60.33;97999.69;8308825;28;20212;-83
2021/03/05 03:23:42;;;;;;;6.27;5.73;;;;;;;7.72;59.34;98000.34;8307867;28;20201;-82
2021/03/05 03:27:45;;;;;;;5.97;5.37;;;;;;;7.79;58.72;98005.25;8308728;28;20232;-82
2021/03/05 03:31:47;;;;;;;5.73;5.23;;;;;;;7.48;59.47;98020.84;8308839;28;20201;-82
2021/03/05 03:35:52;;;;;;;5.80;5.30;;;;;;;7.93;57.77;98014.28;8306951;28;20260;-82
2021/03/05 03:39:56;;;;;;;5.90;5.07;;;;;;;7.81;57.60;98013.78;8308657;28;20208;-84
2021/03/05 03:43:58;;;;;;;5.43;4.97;;;;;;;7.84;57.35;98020.56;8307485;28;20196;-82
2021/03/05 03:48:01;;;;;;;5.90;5.40;;;;;;;7.73;57.57;98033.81;8290365;28;20213;-82
2021/03/05 03:52:10;;;;;;;5.17;4.77;;;;;;;7.55;57.49;98037.81;8306742;28;20240;-82
2021/03/05 03:56:14;;;;;;;5.17;4.77;;;;;;;7.62;57.74;98053.94;8307719;28;20205;-82
2021/03/05 04:00:17;;;;;;;5.37;4.87;;;;;;;7.68;57.56;98052.91;8308050;28;20396;-83
2021/03/05 04:04:22;;;;;;;5.67;5.17;;;;;;;7.81;57.17;98065.34;8335246;28;20643;-83
2021/03/05 04:08:25;;;;;;;5.73;5.23;;;;;;;7.79;56.92;98054.25;8340033;28;20196;-83
2021/03/05 04:12:29;;;;;;;6.17;5.57;;;;;;;7.80;57.24;98071.38;8340078;28;20234;-83
2021/03/05 04:16:31;;;;;;;6.57;5.90;;;;;;;7.84;57.01;98074.72;8339465;28;20220;-84
2021/03/05 04:20:36;;;;;;;6.43;5.13;;;;;;;7.78;57.01;98080.06;8341575;28;20684;-83
2021/03/05 04:24:39;;;;;;;5.73;5.23;;;;;;;7.79;56.87;98089.50;8341216;28;20205;-83
2021/03/05 04:28:42;;;;;;;5.70;5.20;;;;;;;7.83;56.94;98091.94;8339348;28;20196;-83
2021/03/05 04:32:44;;;;;;;6.50;5.57;;;;;;;7.74;57.10;98099.94;8340386;28;20212;-84
2021/03/05 04:36:49;;;;;;;6.57;5.97;;;;;;;7.66;57.12;98104.50;8339944;28;20250;-83
2021/03/05 04:40:51;;;;;;;5.93;5.33;;;;;;;7.55;56.95;98088.50;8342798;28;20196;-83
2021/03/05 04:44:54;;;;;;;5.43;4.93;;;;;;;7.67;57.23;98113.91;8342977;28;20212;-84
2021/03/05 04:48:56;;;;;;;5.60;5.10;;;;;;;7.57;57.58;98120.22;8339818;28;20208;-84
2021/03/05 04:52:58;;;;;;;5.30;4.90;;;;;;;7.65;57.40;98118.25;8339800;28;20251;-83
2021/03/05 04:57:01;;;;;;;5.47;4.97;;;;;;;7.57;57.17;98125.38;8337717;28;20303;-83
2021/03/05 05:01:04;;;;;;;6.10;5.50;;;;;;;7.43;57.77;98131.78;8338429;28;20215;-82
2021/03/05 05:05:08;;;;;;;6.37;5.77;;;;;;;7.64;57.19;98126.91;8319412;28;20291;-82
2021/03/05 05:09:10;;;;;;;5.83;5.33;;;;;;;7.48;57.65;98130.81;8335056;28;20680;-82
2021/03/05 05:13:13;;;;;;;6.03;5.53;;;;;;;7.66;57.83;98140.59;8337062;28;20290;-83
2021/03/05 05:17:16;;;;;;;6.90;6.30;;;;;;;7.66;57.33;98139.75;8319143;28;20668;-83
2021/03/05 05:21:19;;;;;;;6.90;6.30;;;;;;;7.62;57.70;98132.09;8336161;28;20283;-83
2021/03/05 05:25:23;;;;;;;7.97;7.27;;;;;;;7.62;58.02;98131.25;8306152;28;20209;-83
2021/03/05 05:29:26;;;;;;;8.30;7.40;;;;;;;7.50;57.83;98142.78;8310792;28;20228;-83
2021/03/05 05:33:29;;;;;;;9.10;8.27;;;;;;;7.39;58.39;98144.81;8308023;28;20205;-84
2021/03/05 05:37:31;;;;;;;8.97;8.17;;;;;;;7.61;57.74;98148.44;8318963;28;20244;-83
2021/03/05 05:41:33;;;;;;;10.07;9.13;;;;;;;7.39;58.60;98161.13;8321853;28;20200;-83
2021/03/05 05:45:35;;;;;;;10.67;8.90;;;;;;;7.63;57.99;98151.84;8339396;28;20196;-84
2021/03/05 05:49:42;;;;;;;10.03;9.03;;;;;;;7.55;58.33;98160.69;8338339;28;20200;-82
2021/03/05 05:53:46;;;;;;;10.13;9.13;;;;;;;7.69;58.03;98163.72;8338379;28;20184;-82
2021/03/05 05:57:48;;;;;;;10.83;9.50;;;;;;;7.70;58.10;98182.59;8337378;28;20220;-82
2021/03/05 06:01:50;;;;;;;10.50;9.40;;;;;;;7.66;58.00;98183.56;8337723;28;20200;-82
2021/03/05 06:05:56;;;;;;;11.83;10.63;;;;;;;7.58;58.19;98181.22;8338052;28;20207;-83
2021/03/05 06:09:58;;;;;;;11.37;10.17;;;;;;;7.60;58.46;98180.28;8337534;28;20215;-83
2021/03/05 06:14:02;;;;;;;11.83;10.63;;;;;;;7.61;58.07;98178.53;8338976;28;20242;-83
2021/03/05 06:18:04;;;;;;;12.00;10.80;;;;;;;7.64;58.59;98188.75;8321624;28;20231;-83
2021/03/05 06:22:21;;;;;;;11.70;10.60;;;;;;;7.79;58.01;98192.63;8319941;28;20204;-83
2021/03/05 06:26:23;;;;;;;12.00;10.83;;;;;;;7.66;58.53;98196.47;8338686;28;20258;-82
2021/03/05 06:30:29;;;;;;;12.27;11.07;;;;;;;7.76;58.67;98203.84;8339468;28;20200;-82
2021/03/05 06:34:44;;;;;;;13.40;12.03;;;;;;;7.86;58.12;98212.16;8340118;28;20189;-82
2021/03/05 06:38:48;;;;;;;13.07;11.77;;;;;;;7.82;58.15;98208.00;8319457;28;20540;-83
2021/03/05 06:42:51;;;;;;;13.30;11.93;;;;;;;7.85;58.43;98219.97;8338605;28;20644;-82
2021/03/05 06:46:53;;;;;;;12.37;11.17;;;;;;;7.89;58.43;98232.72;8341995;28;20204;-82
2021/03/05 06:51:07;;;;;;;12.83;11.53;;;;;;;7.91;58.27;98236.09;8347140;28;20224;-83
2021/03/05 06:55:12;;;;;;;13.37;12.07;;;;;;;7.74;58.39;98239.16;8352096;28;20232;-83
2021/03/05 06:59:15;;;;;;;12.63;11.43;;;;;;;7.81;58.55;98242.41;8342945;28;20231;-83
2021/03/05 07:03:19;;;;;;;13.47;12.20;;;;;;;7.81;58.48;98247.56;8347358;28;20196;-82
2021/03/05 07:07:22;;;;;;;14.03;12.63;;;;;;;7.88;58.82;98249.09;8349016;28;20201;-83
2021/03/05 07:11:44;;;;;;;13.83;12.37;;;;;;;7.76;58.85;98257.16;8359824;28;20246;-82
2021/03/05 07:15:54;;;;;;;13.17;11.87;;;;;;;7.85;58.43;98266.38;8362780;28;20224;-82
2021/03/05 07:19:56;;;;;;;13.30;12.00;;;;;;;7.94;58.45;98276.41;8348911;28;20188;-82
2021/03/05 07:24:00;;;;;;;12.97;11.77;;;;;;;7.87;58.60;98277.50;8348005;28;20653;-82
2021/03/05 07:28:04;;;;;;;13.83;12.43;;;;;;;7.74;58.86;98295.03;8348030;28;20196;-82
2021/03/05 07:32:08;;;;;;;14.43;12.93;;;;;;;7.92;58.83;98298.81;8350759;28;20200;-83
2021/03/05 07:36:13;;;;;;;13.83;12.43;;;;;;;7.93;58.82;98298.78;8354616;28;20224;-83
2021/03/05 07:40:18;;;;;;;14.43;12.97;;;;;;;7.91;58.53;98305.72;8328148;28;20197;-83
2021/03/05 07:44:22;;;;;;;15.23;13.13;;;;;;;8.00;58.77;98312.38;8321757;28;20217;-82
2021/03/05 07:48:24;;;;;;;15.60;13.97;;;;;;;7.97;59.11;98318.44;8338157;28;20231;-81
2021/03/05 07:52:26;;;;;;;14.70;13.30;;;;;;;7.96;59.15;98315.94;8335336;28;20211;-80
2021/03/05 07:56:40;;;;;;;16.83;13.57;;;;;;;8.05;59.08;98320.78;8345512;28;20714;-81
2021/03/05 08:00:48;;;;;;;14.43;13.03;;;;;;;8.12;58.54;98321.47;8342592;28;20216;-81
2021/03/05 08:04:58;;;;;;;14.17;12.77;;;;;;;7.91;59.66;98325.50;8346652;28;20572;-81
2021/03/05 08:09:06;;;;;;;14.50;13.10;;;;;;;7.98;58.76;98335.63;8343267;28;20216;-81
2021/03/05 08:13:48;;;;;;;14.67;13.17;;;;;;;7.97;59.32;98339.06;8344315;28;20279;-83
2021/03/05 08:17:53;;;;;;;13.63;12.30;;;;;;;7.66;59.95;98341.66;8331821;28;20208;-83
2021/03/05 08:22:02;;;;;;;13.20;11.90;;;;;;;7.87;59.81;98342.81;8345417;28;20197;-83
2021/03/05 08:26:04;;;;;;;13.73;12.33;;;;;;;8.02;59.54;98344.13;8345085;28;20223;-82
2021/03/05 08:30:09;;;;;;;38.07;8.17;;;;;;;10.40;74.77;98340.72;8346892;28;20724;-83
2021/03/05 08:34:26;;;;;;;13.67;10.00;;;;;;;11.53;56.34;98358.66;8336929;28;20224;-83
2021/03/05 08:38:35;;;;;;;17.27;9.90;;;;;;;11.57;52.94;98354.19;8324693;28;20255;-81
2021/03/05 08:42:40;;;;;;;16.77;8.90;;;;;;;11.90;50.95;98358.91;8347094;28;20255;-83
2021/03/05 08:46:43;;;;;;;11.43;7.93;;;;;;;12.06;49.82;98362.50;8348390;28;20224;-82
2021/03/05 08:50:46;;;;;;;10.07;8.20;;;;;;;12.66;48.31;98371.94;8355752;28;20699;-81
2021/03/05 08:54:49;;;;;;;9.70;8.07;;;;;;;12.81;47.77;98375.56;8351698;28;20208;-82
2021/03/05 08:58:59;;;;;;;13.77;7.77;;;;;;;12.92;48.43;98383.72;8350005;28;20687;-83
2021/03/05 09:03:07;;;;;;;12.43;11.13;;;;;;;11.09;49.58;98384.66;8342640;28;20232;-83
2021/03/05 09:07:13;;;;;;;13.60;12.27;;;;;;;10.04;53.14;98381.69;8304945;28;20209;-82
2021/03/05 09:11:15;;;;;;;12.93;11.60;;;;;;;9.74;54.25;98392.22;8312890;28;20240;-82
2021/03/05 09:15:20;;;;;;;14.03;12.17;;;;;;;9.42;54.84;98394.13;8320212;28;20255;-82
2021/03/05 09:19:31;;;;;;;13.77;12.40;;;;;;;9.27;56.01;98387.72;8322597;28;20240;-82
2021/03/05 09:23:37;;;;;;;13.63;12.23;;;;;;;9.26;56.54;98390.38;8340775;28;20201;-82
2021/03/05 09:27:40;;;;;;;15.17;12.50;;;;;;;9.21;56.46;98393.06;8367956;28;20220;-81
2021/03/05 09:31:42;;;;;;;13.40;11.97;;;;;;;9.32;56.28;98392.75;8375505;28;20204;-83
2021/03/05 09:35:44;;;;;;;13.83;12.30;;;;;;;9.47;56.21;98401.75;8375799;28;20226;-82
2021/03/05 09:39:50;;;;;;;15.03;12.53;;;;;;;9.71;56.08;98395.75;8355101;28;20200;-81
2021/03/05 09:43:58;;;;;;;13.00;11.60;;;;;;;9.34;55.50;98409.88;8346410;28;20230;-82
2021/03/05 09:48:01;;;;;;;13.97;11.27;;;;;;;9.41;56.82;98407.97;8344472;28;20211;-83
2021/03/05 09:52:04;;;;;;;12.30;11.07;;;;;;;9.27;56.01;98420.47;8343062;28;20285;-82
2021/03/05 09:56:08;;;;;;;12.30;11.10;;;;;;;9.20;56.33;98410.31;8345086;28;20220;-82
2021/03/05 10:00:10;;;;;;;12.47;10.67;;;;;;;8.98;57.31;98412.72;8347063;28;20201;-82
2021/03/05 10:04:13;;;;;;;12.00;10.80;;;;;;;8.99;56.43;98429.09;8352861;28;20577;-82
2021/03/05 10:08:20;;;;;;;11.43;10.33;;;;;;;9.10;57.06;98434.78;8363042;28;20204;-82
2021/03/05 10:12:28;;;;;;;8.50;7.70;;;;;;;8.50;56.62;98454.59;8348015;28;20243;-82
2021/03/05 10:16:32;;;;;;;4.47;4.07;;;;;;;7.72;56.86;98467.81;8349729;28;20228;-82
2021/03/05 10:20:35;;;;;;;3.90;3.60;;;;;;;7.43;57.09;98469.34;8351676;28;20195;-81
2021/03/05 10:24:37;;;;;;;4.77;4.37;;;;;;;7.69;56.50;98465.31;8350710;28;20231;-82
2021/03/05 10:28:40;;;;;;;5.63;5.13;;;;;;;8.06;56.55;98479.84;8346505;28;20204;-82
2021/03/05 10:32:44;;;;;;;5.70;5.20;;;;;;;7.74;57.70;98476.34;8345747;28;20200;-82
2021/03/05 10:36:46;;;;;;;6.67;6.07;;;;;;;7.96;56.19;98486.97;8345495;28;20228;-82
2021/03/05 10:40:48;;;;;;;7.40;5.77;;;;;;;7.57;57.90;98488.81;8345881;28;20209;-82
2021/03/05 10:45:11;;;;;;;7.00;6.30;;;;;;;7.73;57.39;98494.41;8346255;28;20208;-82
2021/03/05 10:49:13;;;;;;;6.70;6.00;;;;;;;8.11;57.26;98508.09;8349260;28;20196;-82
2021/03/05 10:53:16;;;;;;;6.47;5.87;;;;;;;8.07;57.05;98506.47;8330677;28;20288;-82
2021/03/05 10:57:20;;;;;;;7.23;5.97;;;;;;;8.22;56.84;98524.16;8345271;28;20228;-82
2021/03/05 11:01:23;;;;;;;7.43;4.40;;;;;;;8.02;53.01;98525.50;8343999;28;20208;-81
2021/03/05 11:05:28;;;;;;;3.87;3.43;;;;;;;8.77;49.27;98532.19;8327878;28;20243;-81
2021/03/05 11:09:31;;;;;;;4.33;3.93;;;;;;;8.52;48.77;98532.84;8346607;28;20275;-82
2021/03/05 11:13:34;;;;;;;5.27;4.23;;;;;;;8.02;50.94;98538.41;8347611;28;20243;-81
2021/03/05 11:17:37;;;;;;;4.73;3.70;;;;;;;8.68;50.15;98546.22;8328340;28;20227;-81
2021/03/05 11:21:40;;;;;;;6.07;4.23;;;;;;;8.78;51.06;98539.88;8343010;28;20567;-83
2021/03/05 11:25:42;;;;;;;6.57;4.40;;;;;;;8.68;49.72;98546.22;8342859;28;20208;-80
2021/03/05 11:29:44;;;;;;;5.93;4.60;;;;;;;8.63;47.01;98545.47;8348830;28;20235;-83
2021/03/05 11:33:47;;;;;;;6.23;4.40;;;;;;;8.91;47.20;98544.69;8365757;28;20219;-80
2021/03/05 11:37:49;;;;;;;5.53;4.17;;;;;;;9.07;48.04;98545.13;8347111;28;20751;-82
2021/03/05 11:41:51;;;;;;;5.90;5.07;;;;;;;9.45;44.77;98550.88;8348646;28;20541;-81
2021/03/05 11:45:53;;;;;;;5.30;4.80;;;;;;;10.04;44.14;98561.09;8348917;28;20291;-81
2021/03/05 11:49:56;;;;;;;5.70;4.90;;;;;;;9.83;43.05;98560.03;8360985;28;20231;-81
2021/03/05 11:53:58;;;;;;;5.10;4.60;;;;;;;9.47;43.78;98555.09;8365523;28;20203;-81
2021/03/05 11:58:01;;;;;;;5.97;4.80;;;;;;;9.86;42.38;98562.53;8333114;28;20227;-82
2021/03/05 12:02:03;;;;;;;7.03;4.70;;;;;;;10.15;43.66;98556.41;8349069;28;20211;-80
2021/03/05 12:06:07;;;;;;;5.50;4.53;;;;;;;10.24;43.88;98559.56;8351529;28;20200;-81
2021/03/05 12:10:10;;;;;;;5.60;4.90;;;;;;;9.93;42.66;98561.41;8348776;28;20228;-81
2021/03/05 12:14:12;;;;;;;7.43;5.20;;;;;;;9.24;43.44;98566.13;8348902;28;20667;-81
2021/03/05 12:18:14;;;;;;;8.17;4.57;;;;;;;8.63;42.85;98568.72;8363701;28;20221;-81
2021/03/05 12:22:17;;;;;;;6.63;5.10;;;;;;;8.96;41.09;98571.25;8319990;28;20269;-82
2021/03/05 12:26:20;;;;;;;5.83;4.83;;;;;;;10.32;40.16;98575.75;8322038;28;20212;-82
2021/03/05 12:30:23;;;;;;;5.70;5.07;;;;;;;10.04;39.91;98581.78;8323900;28;20204;-81
2021/03/05 12:34:25;;;;;;;6.37;4.97;;;;;;;9.89;40.66;98583.13;8323169;28;20204;-81
2021/03/05 12:38:28;;;;;;;5.93;5.13;;;;;;;10.06;39.77;98580.00;8328470;28;20232;-82
2021/03/05 12:42:30;;;;;;;8.03;5.10;;;;;;;10.50;38.68;98574.25;8345697;28;20215;-81
2021/03/05 12:46:36;;;;;;;5.70;5.20;;;;;;;11.06;39.39;98594.75;8347031;28;20204;-81
2021/03/05 12:50:38;;;;;;;5.40;4.90;;;;;;;9.64;36.29;98601.16;8347542;28;20293;-81
2021/03/05 12:54:41;;;;;;;6.60;5.90;;;;;;;9.80;47.45;98601.50;8338507;28;20204;-79
2021/03/05 12:58:45;;;;;;;6.07;5.47;;;;;;;10.18;39.08;98610.66;8336236;28;20220;-79
2021/03/05 13:02:47;;;;;;;7.90;6.20;;;;;;;10.09;37.66;98604.91;8340279;28;20236;-80
2021/03/05 13:06:49;;;;;;;7.37;6.67;;;;;;;10.36;36.82;98605.81;8341880;28;20287;-81
2021/03/05 13:10:52;;;;;;;7.03;6.33;;;;;;;10.28;37.59;98616.38;8342707;28;20278;-82
2021/03/05 13:14:54;;;;;;;7.20;5.87;;;;;;;9.39;38.06;98607.03;8342031;28;20200;-82
2021/03/05 13:18:57;;;;;;;7.03;5.90;;;;;;;8.45;38.48;98629.41;8320263;28;20217;-82
2021/03/05 13:22:59;;;;;;;6.87;6.17;;;;;;;8.58;38.89;98633.38;8338761;28;20709;-83
2021/03/05 13:27:02;;;;;;;6.30;5.70;;;;;;;8.84;37.96;98642.19;8340562;28;20197;-81
2021/03/05 13:31:07;;;;;;;6.00;5.40;;;;;;;8.78;38.87;98634.59;8340513;28;20200;-81
2021/03/05 13:35:11;;;;;;;5.63;5.03;;;;;;;8.60;38.46;98656.56;8343259;28;20236;-82
2021/03/05 13:39:13;;;;;;;7.23;5.50;;;;;;;8.81;38.45;98668.06;8344005;28;20256;-82
2021/03/05 13:43:16;;;;;;;8.93;4.17;;;;;;;8.50;37.27;98663.69;8343997;28;20200;-82
2021/03/05 13:47:25;;;;;;;4.63;4.20;;;;;;;8.75;37.19;98674.25;8350612;28;20655;-82
2021/03/05 13:51:28;;;;;;;4.77;4.27;;;;;;;8.62;38.58;98675.44;8354795;28;20228;-82
2021/03/05 13:55:30;;;;;;;5.20;4.23;;;;;;;8.58;37.27;98684.16;8347340;28;20196;-82
2021/03/05 13:59:33;;;;;;;5.10;4.53;;;;;;;8.84;38.16;98685.25;8339739;28;20571;-82
2021/03/05 14:03:36;;;;;;;5.03;4.53;;;;;;;8.75;37.71;98692.31;8339682;28;20199;-82
2021/03/05 14:07:39;;;;;;;7.07;3.90;;;;;;;8.76;36.49;98695.78;8339861;28;20208;-81
2021/03/05 14:11:41;;;;;;;3.73;2.57;;;;;;;8.22;35.47;98697.91;8339136;28;20233;-81
2021/03/05 14:15:44;;;;;;;3.53;2.87;;;;;;;8.34;36.85;98701.03;8323691;28;20204;-82
2021/03/05 14:19:47;;;;;;;7.80;2.60;;;;;;;8.32;35.36;98713.13;8340184;28;20251;-82
2021/03/05 14:23:49;;;;;;;2.83;2.30;;;;;;;8.51;36.30;98716.16;8341521;28;20242;-82
2021/03/05 14:27:51;;;;;;;3.90;2.37;;;;;;;8.26;35.20;98723.63;8346761;28;20215;-82
2021/03/05 14:31:54;;;;;;;4.53;2.33;;;;;;;8.42;35.64;98730.16;8355832;28;20197;-82
2021/03/05 14:35:56;;;;;;;2.90;2.20;;;;;;;8.37;36.13;98737.13;8339870;28;20223;-82
2021/03/05 14:39:58;;;;;;;2.70;2.50;;;;;;;8.13;36.14;98739.38;8340126;28;20235;-82
2021/03/05 14:44:01;;;;;;;3.13;2.83;;;;;;;7.91;35.17;98745.88;8340420;28;20249;-81
2021/03/05 14:48:13;;;;;;;2.93;2.60;;;;;;;8.04;35.87;98752.47;8340872;28;20204;-82
2021/03/05 14:52:15;;;;;;;3.77;2.60;;;;;;;8.18;36.17;98754.75;8339446;28;20645;-82
2021/03/05 14:56:19;;;;;;;4.47;2.90;;;;;;;8.20;36.75;98758.97;8338573;28;20208;-81
2021/03/05 15:00:22;;;;;;;10.80;3.07;;;;;;;8.32;36.74;98754.44;8337686;28;20235;-82
2021/03/05 15:04:25;;;;;;;3.47;3.00;;;;;;;8.25;35.21;98761.47;8338214;28;20266;-82
2021/03/05 15:08:28;;;;;;;4.57;3.03;;;;;;;8.27;35.35;98757.13;8340266;28;20212;-82
2021/03/05 15:12:29;;;;;;;3.43;2.50;;;;;;;8.21;34.45;98760.69;8345368;28;20241;-82
2021/03/05 15:16:33;;;;;;;7.23;2.70;;;;;;;8.52;33.99;98774.66;8334006;28;20261;-82
2021/03/05 15:20:36;;;;;;;3.70;3.10;;;;;;;8.44;32.94;98774.84;8340732;28;20232;-81
2021/03/05 15:24:38;;;;;;;4.33;2.83;;;;;;;8.50;32.98;98782.44;8324447;28;20218;-81
2021/03/05 15:28:40;;;;;;;9.53;3.50;;;;;;;10.78;57.57;98799.56;8308513;28;20209;-81
2021/03/05 15:32:42;;;;;;;3.77;2.33;;;;;;;9.10;33.46;98787.91;8309559;28;20573;-81
2021/03/05 15:36:48;;;;;;;4.13;2.10;;;;;;;8.68;32.59;98799.25;8292831;28;20228;-82
2021/03/05 15:40:50;;;;;;;3.33;1.70;;;;;;;8.50;32.49;98802.25;8310104;28;20273;-81
2021/03/05 15:44:52;;;;;;;3.23;2.03;;;;;;;8.14;32.75;98815.03;8308892;28;20205;-81
2021/03/05 15:48:58;;;;;;;3.43;2.03;;;;;;;8.18;32.96;98820.09;8309144;28;20205;-81
2021/03/05 15:53:01;;;;;;;2.53;2.03;;;;;;;7.96;34.16;98814.53;8308539;28;20212;-82
2021/03/05 15:57:04;;;;;;;3.57;2.00;;;;;;;8.00;33.78;98817.91;8309672;28;20228;-81
2021/03/05 16:01:06;;;;;;;4.57;1.50;;;;;;;8.00;33.31;98825.66;8307712;28;20208;-82
2021/03/05 16:05:09;;;;;;;4.27;2.10;;;;;;;8.11;33.00;98831.44;8310671;28;20201;-81
2021/03/05 16:09:12;;;;;;;2.70;1.90;;;;;;;7.79;33.70;98825.19;8310402;28;20216;-81
2021/03/05 16:13:15;;;;;;;4.13;2.70;;;;;;;7.98;33.96;98833.41;8325124;28;20236;-81
2021/03/05 16:17:17;;;;;;;4.70;2.23;;;;;;;8.03;33.16;98831.59;8344656;28;20224;-83
2021/03/05 16:21:19;;;;;;;11.90;5.43;;;;;;;7.88;32.65;98846.50;8342210;28;20698;-81
2021/03/05 16:25:22;;;;;;;2.57;2.07;;;;;;;7.67;32.17;98845.19;8341416;28;20197;-83
2021/03/05 16:29:24;;;;;;;3.67;2.27;;;;;;;7.83;33.60;98860.34;8342285;28;20577;-81
2021/03/05 16:33:26;;;;;;;6.20;3.10;;;;;;;7.67;32.57;98868.41;8343358;28;20659;-81
2021/03/05 16:37:28;;;;;;;4.37;2.83;;;;;;;7.53;32.85;98863.50;8324965;28;20701;-83
2021/03/05 16:41:32;;;;;;;5.13;2.60;;;;;;;7.68;33.65;98876.09;8344702;28;20227;-80
2021/03/05 16:45:34;;;;;;;3.70;2.30;;;;;;;7.51;33.45;98883.28;8328926;28;20250;-82
2021/03/05 16:49:43;;;;;;;5.43;2.20;;;;;;;7.42;33.20;98890.31;8325553;28;20196;-82
2021/03/05 16:53:48;;;;;;;3.53;2.10;;;;;;;7.13;33.28;98898.50;8339312;28;20209;-82
2021/03/05 16:57:51;;;;;;;4.47;2.23;;;;;;;6.99;32.83;98910.75;8339041;28;20231;-82
2021/03/05 17:01:52;;;;;;;3.73;2.07;;;;;;;7.11;33.04;98910.56;8338869;28;20208;-82
2021/03/05 17:05:54;;;;;;;3.70;2.07;;;;;;;6.91;33.34;98920.28;8338268;28;20204;-82
2021/03/05 17:09:56;;;;;;;3.33;1.97;;;;;;;7.05;34.58;98926.09;8337855;28;20216;-82
2021/03/05 17:14:00;;;;;;;4.23;2.00;;;;;;;7.14;33.75;98931.13;8322042;28;20236;-82
2021/03/05 17:18:03;;;;;;;3.13;2.10;;;;;;;7.14;33.83;98944.00;8339498;28;20232;-82
2021/03/05 17:22:05;;;;;;;3.17;2.20;;;;;;;7.06;33.73;98945.81;8342126;28;20556;-81
2021/03/05 17:26:07;;;;;;;5.20;2.07;;;;;;;7.04;34.20;98963.91;8338831;28;20253;-82
2021/03/05 17:30:13;;;;;;;4.13;2.30;;;;;;;7.04;34.34;98965.59;8339169;28;20559;-81
2021/03/05 17:34:15;;;;;;;4.77;2.23;;;;;;;6.85;34.15;98960.72;8342562;28;20205;-82
2021/03/05 17:38:20;;;;;;;6.13;2.60;;;;;;;6.77;34.30;98984.84;8342587;28;20247;-83
2021/03/05 17:42:22;;;;;;;8.33;5.33;;;;;;;6.94;34.34;98985.47;8338391;28;20215;-82
2021/03/05 17:46:25;;;;;;;5.20;3.50;;;;;;;6.82;33.93;98999.38;8312886;28;20620;-83
2021/03/05 17:50:28;;;;;;;6.17;2.40;;;;;;;6.88;34.43;99003.59;8324075;28;20212;-82
2021/03/05 17:54:30;;;;;;;2.90;1.97;;;;;;;6.94;34.59;99015.53;8318087;28;20197;-83
2021/03/05 17:58:32;;;;;;;6.17;4.47;;;;;;;6.93;35.19;99027.56;8312789;28;20224;-83
2021/03/05 18:02:35;;;;;;;51.20;42.70;;;;;;;6.84;35.40;99030.25;8333446;28;20208;-83
2021/03/05 18:06:38;;;;;;;32.60;27.40;;;;;;;6.63;35.66;99034.78;8327349;28;20283;-83
2021/03/05 18:10:40;;;;;;;24.43;21.83;;;;;;;6.75;36.05;99041.50;8321548;28;20248;-83
2021/03/05 18:14:43;;;;;;;28.17;25.43;;;;;;;6.73;35.92;99048.41;8315489;28;20564;-83
2021/03/05 18:18:46;;;;;;;11.63;10.43;;;;;;;6.72;35.97;99051.00;8306946;28;20236;-83
2021/03/05 18:22:50;;;;;;;5.67;5.07;;;;;;;6.62;36.66;99056.22;8305894;28;20196;-83
2021/03/05 18:27:05;;;;;;;6.37;4.70;;;;;;;6.53;36.71;99063.19;8323627;28;20221;-84
2021/03/05 18:31:14;;;;;;;7.43;5.63;;;;;;;6.53;36.76;99074.38;8327323;28;20574;-84
2021/03/05 18:35:18;;;;;;;8.57;6.20;;;;;;;6.44;37.87;99062.44;8345429;28;20196;-84
2021/03/05 18:39:19;;;;;;;9.00;6.57;;;;;;;6.47;37.49;99069.28;8343882;28;20223;-80
2021/03/05 18:43:21;;;;;;;7.57;6.77;;;;;;;6.41;38.18;99075.31;8343148;28;20250;-81
2021/03/05 18:47:23;;;;;;;10.90;5.33;;;;;;;6.32;39.03;99069.41;8348044;28;20208;-82
2021/03/05 18:51:27;;;;;;;3.50;3.07;;;;;;;6.24;38.67;99074.63;8346818;28;20200;-82
2021/03/05 18:55:29;;;;;;;8.87;4.53;;;;;;;6.19;38.56;99071.28;8345790;28;20235;-80
2021/03/05 18:59:31;;;;;;;5.90;3.60;;;;;;;6.18;38.12;99080.69;8350111;28;20228;-81
2021/03/05 19:03:33;;;;;;;8.87;3.77;;;;;;;6.16;38.29;99091.88;8363617;28;20223;-84
2021/03/05 19:07:37;;;;;;;4.37;3.10;;;;;;;6.20;39.00;99094.38;8344540;28;20253;-82
2021/03/05 19:11:39;;;;;;;10.00;8.20;;;;;;;6.14;38.85;99099.59;8341947;28;20232;-82
2021/03/05 19:15:41;;;;;;;11.27;4.83;;;;;;;5.98;39.97;99101.44;8343279;28;20201;-82